sensor_id;sensor_type;location;lat;lon;timestamp;pressure;altitude;pressure_sealevel;temperature;humidity
40315;BME280;26021;45.640;11.302;2023-07-13T05:53:23;98640.91;;;20.65;100.00
40315;BME280;26021;45.640;11.302;2023-07-13T05:55:49;98614.75;;;20.58;100.00
40315;BME280;26021;45.640;11.302;2023-07-13T05:58:18;98623.81;;;20.81;100.00
40315;BME280;26021;45.640;11.302;2023-07-13T06:00:44;98632.03;;;20.86;100.00
40315;BME280;26021;45.640;11.302;2023-07-13T06:03:09;98645.44;;;21.09;100.00
40315;BME280;26021;45.640;11.302;2023-07-13T06:05:38;98645.00;;;21.34;100.00
40315;BME280;26021;45.640;11.302;2023-07-13T06:08:05;98629.78;;;21.16;100.00
40315;BME280;26021;45.640;11.302;2023-07-13T06:10:35;98627.81;;;21.12;100.00
40315;BME280;26021;45.640;11.302;2023-07-13T06:13:01;98622.69;;;21.32;100.00
40315;BME280;26021;45.640;11.302;2023-07-13T06:15:26;98621.53;;;21.50;100.00
40315;BME280;26021;45.640;11.302;2023-07-13T06:17:52;98608.00;;;21.33;100.00
40315;BME280;26021;45.640;11.302;2023-07-13T06:20:17;98612.25;;;21.46;100.00
40315;BME280;26021;45.640;11.302;2023-07-13T06:22:42;98587.25;;;21.49;100.00
40315;BME280;26021;45.640;11.302;2023-07-13T06:25:08;98616.81;;;21.84;100.00
40315;BME280;26021;45.640;11.302;2023-07-13T06:27:34;98620.16;;;21.91;100.00
40315;BME280;26021;45.640;11.302;2023-07-13T06:29:59;98622.06;;;21.91;100.00
40315;BME280;26021;45.640;11.302;2023-07-13T06:32:25;98568.97;;;21.44;100.00
40315;BME280;26021;45.640;11.302;2023-07-13T06:34:50;98625.16;;;21.77;100.00
40315;BME280;26021;45.640;11.302;2023-07-13T06:37:17;98585.59;;;21.48;100.00
40315;BME280;26021;45.640;11.302;2023-07-13T06:39:43;98617.56;;;21.79;100.00
40315;BME280;26021;45.640;11.302;2023-07-13T06:42:08;98616.91;;;21.94;100.00
40315;BME280;26021;45.640;11.302;2023-07-13T06:44:34;98584.03;;;21.74;100.00
40315;BME280;26021;45.640;11.302;2023-07-13T06:46:59;98634.84;;;22.12;100.00
40315;BME280;26021;45.640;11.302;2023-07-13T06:49:25;98623.22;;;22.22;100.00
40315;BME280;26021;45.640;11.302;2023-07-13T06:51:50;98631.00;;;22.35;100.00
40315;BME280;26021;45.640;11.302;2023-07-13T06:54:16;98629.66;;;22.37;100.00
40315;BME280;26021;45.640;11.302;2023-07-13T06:56:41;98620.53;;;22.54;100.00
40315;BME280;26021;45.640;11.302;2023-07-13T06:59:08;98624.69;;;22.61;100.00
40315;BME280;26021;45.640;11.302;2023-07-13T07:01:33;98620.44;;;22.16;100.00
40315;BME280;26021;45.640;11.302;2023-07-13T07:03:59;98623.66;;;22.35;100.00
40315;BME280;26021;45.640;11.302;2023-07-13T07:06:24;98465.72;;;21.33;100.00
40315;BME280;26021;45.640;11.302;2023-07-13T07:08:51;98596.53;;;22.24;100.00
40315;BME280;26021;45.640;11.302;2023-07-13T07:11:20;98584.25;;;22.21;100.00
40315;BME280;26021;45.640;11.302;2023-07-13T07:13:47;98635.28;;;22.58;100.00
40315;BME280;26021;45.640;11.302;2023-07-13T07:16:13;98621.13;;;22.61;100.00
40315;BME280;26021;45.640;11.302;2023-07-13T07:18:38;98620.06;;;22.62;100.00
40315;BME280;26021;45.640;11.302;2023-07-13T07:21:04;98621.13;;;22.61;100.00
40315;BME280;26021;45.640;11.302;2023-07-13T07:23:29;98610.06;;;22.13;100.00
40315;BME280;26021;45.640;11.302;2023-07-13T07:25:55;98622.31;;;22.38;100.00
40315;BME280;26021;45.640;11.302;2023-07-13T07:28:20;98628.19;;;22.57;100.00
40315;BME280;26021;45.640;11.302;2023-07-13T07:30:47;98628.78;;;22.64;100.00
40315;BME280;26021;45.640;11.302;2023-07-13T07:33:13;98627.72;;;22.65;100.00
40315;BME280;26021;45.640;11.302;2023-07-13T07:35:38;98625.44;;;22.51;100.00
40315;BME280;26021;45.640;11.302;2023-07-13T07:38:04;98648.59;;;22.81;100.00
40315;BME280;26021;45.640;11.302;2023-07-13T07:40:30;98660.44;;;22.97;100.00
40315;BME280;26021;45.640;11.302;2023-07-13T07:42:56;98603.63;;;22.51;100.00
40315;BME280;26021;45.640;11.302;2023-07-13T07:45:22;98647.25;;;22.83;100.00
40315;BME280;26021;45.640;11.302;2023-07-13T07:47:47;98645.75;;;23.03;100.00
40315;BME280;26021;45.640;11.302;2023-07-13T07:50:13;98624.78;;;22.71;100.00
40315;BME280;26021;45.640;11.302;2023-07-13T07:52:38;98665.00;;;22.86;100.00
40315;BME280;26021;45.640;11.302;2023-07-13T07:55:05;98573.78;;;22.35;100.00
40315;BME280;26021;45.640;11.302;2023-07-13T07:57:32;98670.38;;;23.08;100.00
40315;BME280;26021;45.640;11.302;2023-07-13T07:59:57;98669.25;;;23.04;100.00
40315;BME280;26021;45.640;11.302;2023-07-13T08:02:24;98653.56;;;22.89;100.00
40315;BME280;26021;45.640;11.302;2023-07-13T08:04:49;98689.91;;;23.00;100.00
40315;BME280;26021;45.640;11.302;2023-07-13T08:07:15;98682.13;;;23.13;100.00
40315;BME280;26021;45.640;11.302;2023-07-13T08:09:40;98676.69;;;22.81;100.00
40315;BME280;26021;45.640;11.302;2023-07-13T08:12:06;98670.00;;;22.40;100.00
40315;BME280;26021;45.640;11.302;2023-07-13T08:14:32;98683.47;;;22.52;100.00
40315;BME280;26021;45.640;11.302;2023-07-13T08:16:57;98683.28;;;22.59;100.00
40315;BME280;26021;45.640;11.302;2023-07-13T08:19:23;98678.88;;;22.85;100.00
40315;BME280;26021;45.640;11.302;2023-07-13T08:21:49;98684.59;;;23.15;100.00
40315;BME280;26021;45.640;11.302;2023-07-13T08:24:14;98623.22;;;22.80;100.00
40315;BME280;26021;45.640;11.302;2023-07-13T08:26:40;98682.34;;;23.07;100.00
40315;BME280;26021;45.640;11.302;2023-07-13T08:29:06;98669.38;;;23.24;100.00
40315;BME280;26021;45.640;11.302;2023-07-13T08:31:31;98670.78;;;23.32;100.00
40315;BME280;26021;45.640;11.302;2023-07-13T08:33:57;98637.69;;;23.18;100.00
40315;BME280;26021;45.640;11.302;2023-07-13T08:36:22;98665.13;;;23.43;100.00
40315;BME280;26021;45.640;11.302;2023-07-13T08:38:48;98637.69;;;23.65;100.00
40315;BME280;26021;45.640;11.302;2023-07-13T08:41:15;98636.88;;;23.70;100.00
40315;BME280;26021;45.640;11.302;2023-07-13T08:43:45;98595.63;;;23.61;100.00
40315;BME280;26021;45.640;11.302;2023-07-13T08:46:21;98634.53;;;23.89;100.00
40315;BME280;26021;45.640;11.302;2023-07-13T08:48:54;98583.06;;;23.60;100.00
40315;BME280;26021;45.640;11.302;2023-07-13T08:51:44;98609.66;;;23.80;100.00
40315;BME280;26021;45.640;11.302;2023-07-13T08:56:52;98611.75;;;23.68;100.00
40315;BME280;26021;45.640;11.302;2023-07-13T08:59:23;98611.47;;;23.64;100.00
40315;BME280;26021;45.640;11.302;2023-07-13T09:02:08;98628.94;;;23.63;100.00
40315;BME280;26021;45.640;11.302;2023-07-13T09:04:53;98643.81;;;23.88;100.00
40315;BME280;26021;45.640;11.302;2023-07-13T09:07:32;98657.41;;;23.77;100.00
40315;BME280;26021;45.640;11.302;2023-07-13T09:10:09;98669.19;;;23.41;100.00
40315;BME280;26021;45.640;11.302;2023-07-13T09:13:00;98663.41;;;23.27;100.00
40315;BME280;26021;45.640;11.302;2023-07-13T09:15:32;98670.34;;;23.50;100.00
40315;BME280;26021;45.640;11.302;2023-07-13T09:18:08;98639.06;;;23.68;100.00
40315;BME280;26021;45.640;11.302;2023-07-13T09:20:46;98653.09;;;23.87;100.00
40315;BME280;26021;45.640;11.302;2023-07-13T09:23:22;98645.63;;;23.72;100.00
40315;BME280;26021;45.640;11.302;2023-07-13T09:25:52;98596.78;;;23.18;100.00
40315;BME280;26021;45.640;11.302;2023-07-13T09:28:24;98653.66;;;23.41;100.00
40315;BME280;26021;45.640;11.302;2023-07-13T09:31:14;98660.03;;;23.15;100.00
40315;BME280;26021;45.640;11.302;2023-07-13T09:33:41;98665.34;;;22.95;100.00
40315;BME280;26021;45.640;11.302;2023-07-13T09:36:28;98652.75;;;22.89;100.00
40315;BME280;26021;45.640;11.302;2023-07-13T09:39:36;98667.53;;;22.98;100.00
40315;BME280;26021;45.640;11.302;2023-07-13T09:42:19;98679.25;;;22.98;100.00
40315;BME280;26021;45.640;11.302;2023-07-13T09:44:58;98667.97;;;23.17;100.00
40315;BME280;26021;45.640;11.302;2023-07-13T09:47:31;98661.19;;;23.24;100.00
40315;BME280;26021;45.640;11.302;2023-07-13T09:50:03;98652.78;;;23.31;100.00
40315;BME280;26021;45.640;11.302;2023-07-13T09:52:44;98652.00;;;23.40;100.00
40315;BME280;26021;45.640;11.302;2023-07-13T09:55:29;98627.19;;;23.47;100.00
40315;BME280;26021;45.640;11.302;2023-07-13T09:57:56;98641.94;;;23.46;100.00
40315;BME280;26021;45.640;11.302;2023-07-13T10:00:27;98589.09;;;23.10;100.00
40315;BME280;26021;45.640;11.302;2023-07-13T10:03:20;98641.50;;;23.64;100.00
40315;BME280;26021;45.640;11.302;2023-07-13T10:05:48;98629.41;;;23.50;100.00
40315;BME280;26021;45.640;11.302;2023-07-13T10:08:27;98628.41;;;23.66;100.00
40315;BME280;26021;45.640;11.302;2023-07-13T10:10:57;98647.66;;;23.97;100.00
40315;BME280;26021;45.640;11.302;2023-07-13T10:15:54;98636.06;;;24.67;100.00
40315;BME280;26021;45.640;11.302;2023-07-13T10:18:22;98582.75;;;24.65;100.00
40315;BME280;26021;45.640;11.302;2023-07-13T10:20:53;98612.53;;;25.07;100.00
40315;BME280;26021;45.640;11.302;2023-07-13T10:23:21;98605.94;;;25.18;100.00
40315;BME280;26021;45.640;11.302;2023-07-13T10:25:50;98588.97;;;25.31;100.00
40315;BME280;26021;45.640;11.302;2023-07-13T10:30:46;98569.34;;;25.79;100.00
40315;BME280;26021;45.640;11.302;2023-07-13T10:33:12;98485.34;;;25.59;100.00
40315;BME280;26021;45.640;11.302;2023-07-13T10:35:43;98605.16;;;26.42;100.00
40315;BME280;26021;45.640;11.302;2023-07-13T10:38:14;98589.13;;;26.54;100.00
40315;BME280;26021;45.640;11.302;2023-07-13T10:40:47;98608.63;;;26.86;100.00
40315;BME280;26021;45.640;11.302;2023-07-13T10:43:21;98601.09;;;27.02;100.00
40315;BME280;26021;45.640;11.302;2023-07-13T10:45:49;98589.44;;;27.39;100.00
40315;BME280;26021;45.640;11.302;2023-07-13T10:48:15;98547.97;;;27.17;93.23
40315;BME280;26021;45.640;11.302;2023-07-13T10:50:45;98586.81;;;27.29;100.00
40315;BME280;26021;45.640;11.302;2023-07-13T10:53:32;98587.84;;;27.33;99.88
40315;BME280;26021;45.640;11.302;2023-07-13T10:56:00;98597.09;;;27.18;100.00
40315;BME280;26021;45.640;11.302;2023-07-13T10:58:41;98601.69;;;27.47;100.00
40315;BME280;26021;45.640;11.302;2023-07-13T11:01:13;98442.91;;;26.29;99.32
40315;BME280;26021;45.640;11.302;2023-07-13T11:03:58;98572.56;;;27.27;92.49
40315;BME280;26021;45.640;11.302;2023-07-13T11:06:30;98568.56;;;27.14;89.99
40315;BME280;26021;45.640;11.302;2023-07-13T11:09:40;98571.09;;;27.11;92.48
40315;BME280;26021;45.640;11.302;2023-07-13T11:12:27;98577.91;;;27.37;87.87
40315;BME280;26021;45.640;11.302;2023-07-13T11:19:53;98545.84;;;27.57;88.04
40315;BME280;26021;45.640;11.302;2023-07-13T11:22:23;98582.44;;;27.95;88.70
40315;BME280;26021;45.640;11.302;2023-07-13T11:27:50;98576.00;;;28.23;81.54
40315;BME280;26021;45.640;11.302;2023-07-13T11:36:02;98582.66;;;27.79;90.43
40315;BME280;26021;45.640;11.302;2023-07-13T11:38:43;98573.59;;;27.98;89.77
40315;BME280;26021;45.640;11.302;2023-07-13T11:41:19;98577.75;;;28.14;87.64
40315;BME280;26021;45.640;11.302;2023-07-13T11:43:51;98571.81;;;28.07;85.86
40315;BME280;26021;45.640;11.302;2023-07-13T11:46:22;98572.78;;;27.54;88.34
40315;BME280;26021;45.640;11.302;2023-07-13T11:48:48;98566.59;;;27.44;92.63
40315;BME280;26021;45.640;11.302;2023-07-13T11:51:23;98557.22;;;27.45;95.71
40315;BME280;26021;45.640;11.302;2023-07-13T11:53:54;98558.44;;;27.81;92.47
40315;BME280;26021;45.640;11.302;2023-07-13T11:56:20;98492.91;;;27.51;89.38
40315;BME280;26021;45.640;11.302;2023-07-13T12:01:26;98553.38;;;27.70;88.68
40315;BME280;26021;45.640;11.302;2023-07-13T12:03:57;98561.75;;;27.60;91.56
40315;BME280;26021;45.640;11.302;2023-07-13T12:06:30;98518.50;;;27.22;92.00
40315;BME280;26021;45.640;11.302;2023-07-13T12:09:00;98550.88;;;27.73;92.48
40315;BME280;26021;45.640;11.302;2023-07-13T12:11:29;98545.66;;;27.72;84.69
40315;BME280;26021;45.640;11.302;2023-07-13T12:13:55;98549.84;;;27.88;87.04
40315;BME280;26021;45.640;11.302;2023-07-13T12:16:29;98545.91;;;27.75;87.23
40315;BME280;26021;45.640;11.302;2023-07-13T12:20:39;98546.00;;;28.27;87.91
40315;BME280;26021;45.640;11.302;2023-07-13T12:23:49;98549.31;;;28.42;84.15
40315;BME280;26021;45.640;11.302;2023-07-13T12:26:16;98528.38;;;28.28;82.59
40315;BME280;26021;45.640;11.302;2023-07-13T12:28:48;98500.44;;;27.83;85.59
40315;BME280;26021;45.640;11.302;2023-07-13T12:31:31;98531.41;;;28.07;89.81
40315;BME280;26021;45.640;11.302;2023-07-13T12:34:09;98536.44;;;28.19;92.55
40315;BME280;26021;45.640;11.302;2023-07-13T12:36:39;98530.22;;;28.32;91.39
40315;BME280;26021;45.640;11.302;2023-07-13T12:41:44;98524.00;;;28.73;85.10
40315;BME280;26021;45.640;11.302;2023-07-13T12:44:16;98523.75;;;28.88;82.70
40315;BME280;26021;45.640;11.302;2023-07-13T12:47:11;98518.09;;;29.12;84.21
40315;BME280;26021;45.640;11.302;2023-07-13T12:49:42;98515.56;;;28.83;81.98
40315;BME280;26021;45.640;11.302;2023-07-13T12:52:17;98509.53;;;29.00;83.70
40315;BME280;26021;45.640;11.302;2023-07-13T12:54:53;98479.34;;;29.08;79.51
40315;BME280;26021;45.640;11.302;2023-07-13T12:57:22;98491.84;;;28.87;83.15
40315;BME280;26021;45.640;11.302;2023-07-13T12:59:52;98499.22;;;29.05;81.60
40315;BME280;26021;45.640;11.302;2023-07-13T13:02:28;98494.41;;;28.84;80.88
40315;BME280;26021;45.640;11.302;2023-07-13T13:04:56;98500.56;;;28.62;84.83
40315;BME280;26021;45.640;11.302;2023-07-13T13:07:23;98501.53;;;28.38;86.20
40315;BME280;26021;45.640;11.302;2023-07-13T13:09:49;98423.22;;;27.66;87.35
40315;BME280;26021;45.640;11.302;2023-07-13T13:12:14;98483.59;;;28.41;87.40
40315;BME280;26021;45.640;11.302;2023-07-13T13:14:40;98488.44;;;28.63;86.41
40315;BME280;26021;45.640;11.302;2023-07-13T13:17:20;98492.63;;;28.74;83.34
40315;BME280;26021;45.640;11.302;2023-07-13T13:19:47;98448.38;;;28.57;83.29
40315;BME280;26021;45.640;11.302;2023-07-13T13:22:13;98472.03;;;28.58;83.55
40315;BME280;26021;45.640;11.302;2023-07-13T13:24:39;98490.78;;;28.69;80.65
40315;BME280;26021;45.640;11.302;2023-07-13T13:27:04;98472.03;;;28.58;80.98
40315;BME280;26021;45.640;11.302;2023-07-13T13:29:31;98494.91;;;28.86;79.47
40315;BME280;26021;45.640;11.302;2023-07-13T13:31:58;98492.19;;;28.99;78.54
40315;BME280;26021;45.640;11.302;2023-07-13T13:34:25;98476.31;;;28.77;75.45
40315;BME280;26021;45.640;11.302;2023-07-13T13:36:51;98499.28;;;28.87;77.80
40315;BME280;26021;45.640;11.302;2023-07-13T13:39:21;98505.41;;;28.97;nan
40315;BME280;26021;45.640;11.302;2023-07-13T13:41:48;98514.34;;;28.75;85.44
40315;BME280;26021;45.640;11.302;2023-07-13T13:44:18;98514.84;;;28.31;85.90
40315;BME280;26021;45.640;11.302;2023-07-13T13:46:48;98520.28;;;27.80;91.21
40315;BME280;26021;45.640;11.302;2023-07-13T13:49:17;98490.88;;;27.38;92.55
40315;BME280;26021;45.640;11.302;2023-07-13T13:51:43;98533.00;;;27.52;94.87
40315;BME280;26021;45.640;11.302;2023-07-13T13:54:12;98486.06;;;27.06;93.70
40315;BME280;26021;45.640;11.302;2023-07-13T13:56:37;98546.09;;;27.12;93.75
40315;BME280;26021;45.640;11.302;2023-07-13T13:59:03;98555.69;;;26.86;97.66
40315;BME280;26021;45.640;11.302;2023-07-13T14:01:30;98525.03;;;26.74;98.73
40315;BME280;26021;45.640;11.302;2023-07-13T14:03:56;98551.63;;;27.07;97.88
40315;BME280;26021;45.640;11.302;2023-07-13T14:06:21;98516.69;;;26.89;98.79
40315;BME280;26021;45.640;11.302;2023-07-13T14:08:47;98540.66;;;27.07;100.00
40315;BME280;26021;45.640;11.302;2023-07-13T14:11:14;98565.59;;;27.11;100.00
40315;BME280;26021;45.640;11.302;2023-07-13T14:13:48;98585.22;;;26.99;100.00
40315;BME280;26021;45.640;11.302;2023-07-13T14:16:15;98583.88;;;26.91;100.00
40315;BME280;26021;45.640;11.302;2023-07-13T14:18:46;98560.84;;;26.58;100.00
40315;BME280;26021;45.640;11.302;2023-07-13T14:21:17;98571.25;;;26.62;100.00
40315;BME280;26021;45.640;11.302;2023-07-13T14:23:44;98579.22;;;26.58;100.00
40315;BME280;26021;45.640;11.302;2023-07-13T14:28:45;98554.16;;;26.41;100.00
40315;BME280;26021;45.640;11.302;2023-07-13T14:31:15;98586.34;;;26.59;100.00
40315;BME280;26021;45.640;11.302;2023-07-13T14:33:42;98591.34;;;26.52;100.00
40315;BME280;26021;45.640;11.302;2023-07-13T14:36:29;98594.22;;;26.32;100.00
40315;BME280;26021;45.640;11.302;2023-07-13T14:38:57;98574.63;;;26.14;100.00
40315;BME280;26021;45.640;11.302;2023-07-13T14:41:23;98598.44;;;26.19;100.00
40315;BME280;26021;45.640;11.302;2023-07-13T14:43:48;98593.75;;;26.19;100.00
40315;BME280;26021;45.640;11.302;2023-07-13T14:46:34;98605.88;;;26.13;100.00
40315;BME280;26021;45.640;11.302;2023-07-13T14:49:15;98596.94;;;25.87;100.00
40315;BME280;26021;45.640;11.302;2023-07-13T14:51:41;98597.28;;;25.76;100.00
40315;BME280;26021;45.640;11.302;2023-07-13T14:54:08;98613.50;;;25.57;100.00
40315;BME280;26021;45.640;11.302;2023-07-13T14:56:34;98619.84;;;25.42;100.00
40315;BME280;26021;45.640;11.302;2023-07-13T14:59:00;98624.53;;;25.37;100.00
40315;BME280;26021;45.640;11.302;2023-07-13T15:01:26;98611.38;;;25.39;100.00
40315;BME280;26021;45.640;11.302;2023-07-13T15:03:52;98611.88;;;25.56;100.00
40315;BME280;26021;45.640;11.302;2023-07-13T15:06:18;98591.41;;;25.23;100.00
40315;BME280;26021;45.640;11.302;2023-07-13T15:08:45;98654.03;;;25.55;100.00
40315;BME280;26021;45.640;11.302;2023-07-13T15:11:11;98542.81;;;24.79;100.00
40315;BME280;26021;45.640;11.302;2023-07-13T15:13:38;98635.97;;;25.54;100.00
40315;BME280;26021;45.640;11.302;2023-07-13T15:16:04;98611.38;;;25.39;100.00
40315;BME280;26021;45.640;11.302;2023-07-13T15:18:30;98593.38;;;25.12;100.00
40315;BME280;26021;45.640;11.302;2023-07-13T15:20:56;98634.38;;;25.22;100.00
40315;BME280;26021;45.640;11.302;2023-07-13T15:23:23;98631.13;;;25.15;100.00
40315;BME280;26021;45.640;11.302;2023-07-13T15:25:49;98588.19;;;24.80;100.00
40315;BME280;26021;45.640;11.302;2023-07-13T15:28:15;98630.84;;;25.22;100.00
40315;BME280;26021;45.640;11.302;2023-07-13T15:30:42;98622.63;;;25.22;100.00
40315;BME280;26021;45.640;11.302;2023-07-13T15:35:42;98635.38;;;25.72;100.00
40315;BME280;26021;45.640;11.302;2023-07-13T15:38:28;98627.66;;;25.84;100.00
40315;BME280;26021;45.640;11.302;2023-07-13T15:40:55;98623.56;;;26.36;100.00
40315;BME280;26021;45.640;11.302;2023-07-13T15:43:21;98599.81;;;26.55;100.00
40315;BME280;26021;45.640;11.302;2023-07-13T15:45:48;98617.00;;;27.05;100.00
40315;BME280;26021;45.640;11.302;2023-07-13T15:48:24;98615.69;;;26.98;98.63
40315;BME280;26021;45.640;11.302;2023-07-13T15:51:00;98610.50;;;26.57;100.00
40315;BME280;26021;45.640;11.302;2023-07-13T15:53:32;98599.41;;;26.38;100.00
40315;BME280;26021;45.640;11.302;2023-07-13T15:55:58;98613.69;;;26.69;100.00
40315;BME280;26021;45.640;11.302;2023-07-13T15:58:24;98611.44;;;26.81;100.00
40315;BME280;26021;45.640;11.302;2023-07-13T16:00:50;98601.47;;;26.90;100.00
40315;BME280;26021;45.640;11.302;2023-07-13T16:03:20;98573.97;;;26.96;100.00
40315;BME280;26021;45.640;11.302;2023-07-13T16:05:46;98592.19;;;27.15;100.00
40315;BME280;26021;45.640;11.302;2023-07-13T16:08:30;98584.91;;;27.01;100.00
40315;BME280;26021;45.640;11.302;2023-07-13T16:10:56;98583.81;;;27.02;100.00
40315;BME280;26021;45.640;11.302;2023-07-13T16:13:22;98578.03;;;27.03;100.00
40315;BME280;26021;45.640;11.302;2023-07-13T16:15:50;98583.47;;;26.79;100.00
40315;BME280;26021;45.640;11.302;2023-07-13T16:18:15;98576.63;;;26.43;100.00
40315;BME280;26021;45.640;11.302;2023-07-13T16:20:43;98572.50;;;26.74;100.00
40315;BME280;26021;45.640;11.302;2023-07-13T16:23:11;98545.47;;;26.63;100.00
40315;BME280;26021;45.640;11.302;2023-07-13T16:25:39;98533.03;;;26.70;100.00
40315;BME280;26021;45.640;11.302;2023-07-13T16:28:05;98570.63;;;27.04;100.00
40315;BME280;26021;45.640;11.302;2023-07-13T16:30:31;98564.97;;;27.19;100.00
40315;BME280;26021;45.640;11.302;2023-07-13T16:33:00;98558.91;;;26.93;100.00
40315;BME280;26021;45.640;11.302;2023-07-13T16:35:31;98565.44;;;26.97;100.00
40315;BME280;26021;45.640;11.302;2023-07-13T16:38:03;98569.22;;;26.77;100.00
40315;BME280;26021;45.640;11.302;2023-07-13T16:40:33;98567.88;;;26.70;95.95
40315;BME280;26021;45.640;11.302;2023-07-13T16:43:00;98566.97;;;26.50;95.77
40315;BME280;26021;45.640;11.302;2023-07-13T16:45:30;98570.72;;;26.20;99.04
40315;BME280;26021;45.640;11.302;2023-07-13T16:48:00;98564.00;;;25.97;100.00
40315;BME280;26021;45.640;11.302;2023-07-13T16:50:30;98521.59;;;25.90;100.00
40315;BME280;26021;45.640;11.302;2023-07-13T16:52:56;98564.06;;;26.32;100.00
40315;BME280;26021;45.640;11.302;2023-07-13T16:55:23;98584.81;;;26.48;100.00
40315;BME280;26021;45.640;11.302;2023-07-13T16:57:57;98538.47;;;26.46;100.00
40315;BME280;26021;45.640;11.302;2023-07-13T17:00:31;98565.88;;;26.80;100.00
40315;BME280;26021;45.640;11.302;2023-07-13T17:03:01;98543.78;;;26.96;100.00
40315;BME280;26021;45.640;11.302;2023-07-13T17:05:35;98537.88;;;26.83;100.00
40315;BME280;26021;45.640;11.302;2023-07-13T17:08:09;98556.25;;;26.83;100.00
40315;BME280;26021;45.640;11.302;2023-07-13T17:10:36;98554.38;;;26.78;100.00
40315;BME280;26021;45.640;11.302;2023-07-13T17:13:03;98546.81;;;26.65;100.00
40315;BME280;26021;45.640;11.302;2023-07-13T17:15:32;98534.78;;;26.61;100.00
40315;BME280;26021;45.640;11.302;2023-07-13T17:17:58;98537.19;;;26.68;100.00
40315;BME280;26021;45.640;11.302;2023-07-13T17:20:32;98542.06;;;26.76;100.00
40315;BME280;26021;45.640;11.302;2023-07-13T17:23:05;98544.88;;;26.66;100.00
40315;BME280;26021;45.640;11.302;2023-07-13T17:25:34;98544.13;;;26.21;100.00
40315;BME280;26021;45.640;11.302;2023-07-13T17:28:00;98541.25;;;26.02;100.00
40315;BME280;26021;45.640;11.302;2023-07-13T17:30:26;98527.41;;;25.78;100.00
40315;BME280;26021;45.640;11.302;2023-07-13T17:32:52;98550.34;;;25.92;100.00
40315;BME280;26021;45.640;11.302;2023-07-13T17:35:27;98553.66;;;25.89;100.00
40315;BME280;26021;45.640;11.302;2023-07-13T17:37:55;98545.44;;;25.89;100.00
40315;BME280;26021;45.640;11.302;2023-07-13T17:40:22;98543.75;;;25.93;100.00
40315;BME280;26021;45.640;11.302;2023-07-13T17:42:49;98545.25;;;25.76;100.00
40315;BME280;26021;45.640;11.302;2023-07-13T17:45:27;98553.94;;;25.88;100.00
40315;BME280;26021;45.640;11.302;2023-07-13T17:47:54;98558.63;;;25.82;100.00
40315;BME280;26021;45.640;11.302;2023-07-13T17:53:08;98487.56;;;24.77;100.00
40315;BME280;26021;45.640;11.302;2023-07-13T17:55:34;98559.72;;;24.96;100.00
40315;BME280;26021;45.640;11.302;2023-07-13T17:58:00;98505.91;;;24.46;100.00
40315;BME280;26021;45.640;11.302;2023-07-13T18:00:34;98563.63;;;24.55;100.00
40315;BME280;26021;45.640;11.302;2023-07-13T18:03:14;98567.16;;;24.45;100.00
40315;BME280;26021;45.640;11.302;2023-07-13T18:05:41;98561.94;;;24.44;100.00
40315;BME280;26021;45.640;11.302;2023-07-13T18:08:24;98564.97;;;24.37;100.00
40315;BME280;26021;45.640;11.302;2023-07-13T18:10:51;98562.19;;;24.17;100.00
40315;BME280;26021;45.640;11.302;2023-07-13T18:13:17;98506.38;;;23.77;100.00
40315;BME280;26021;45.640;11.302;2023-07-13T18:15:44;98567.38;;;24.23;100.00
40315;BME280;26021;45.640;11.302;2023-07-13T18:18:11;98562.44;;;23.90;100.00
40315;BME280;26021;45.640;11.302;2023-07-13T18:20:38;98530.91;;;23.57;100.00
40315;BME280;26021;45.640;11.302;2023-07-13T18:23:17;98574.63;;;23.72;100.00
40315;BME280;26021;45.640;11.302;2023-07-13T18:25:44;98569.44;;;23.70;100.00
40315;BME280;26021;45.640;11.302;2023-07-13T18:28:11;98586.25;;;23.42;100.00
40315;BME280;26021;45.640;11.302;2023-07-13T18:30:42;98560.19;;;23.14;100.00
40315;BME280;26021;45.640;11.302;2023-07-13T18:33:17;98589.66;;;23.12;100.00
40315;BME280;26021;45.640;11.302;2023-07-13T18:35:44;98525.81;;;22.71;100.00
40315;BME280;26021;45.640;11.302;2023-07-13T18:38:25;98598.47;;;23.29;100.00
40315;BME280;26021;45.640;11.302;2023-07-13T18:40:55;98581.06;;;22.93;100.00
40315;BME280;26021;45.640;11.302;2023-07-13T18:43:24;98588.00;;;23.11;100.00
40315;BME280;26021;45.640;11.302;2023-07-13T18:45:59;98614.88;;;23.34;100.00
40315;BME280;26021;45.640;11.302;2023-07-13T18:48:28;98615.16;;;23.38;100.00
40315;BME280;26021;45.640;11.302;2023-07-13T18:50:54;98622.47;;;23.27;100.00
40315;BME280;26021;45.640;11.302;2023-07-13T18:53:23;98569.06;;;22.57;100.00
40315;BME280;26021;45.640;11.302;2023-07-13T18:55:48;98635.47;;;23.10;100.00
40315;BME280;26021;45.640;11.302;2023-07-13T18:58:14;98638.28;;;22.88;100.00
40315;BME280;26021;45.640;11.302;2023-07-13T19:00:41;98637.81;;;22.64;100.00
40315;BME280;26021;45.640;11.302;2023-07-13T19:03:15;98547.94;;;22.10;100.00
40315;BME280;26021;45.640;11.302;2023-07-13T19:05:41;98632.53;;;22.52;100.00
40315;BME280;26021;45.640;11.302;2023-07-13T19:08:18;98655.22;;;22.63;100.00
40315;BME280;26021;45.640;11.302;2023-07-13T19:10:44;98657.25;;;22.46;100.00
40315;BME280;26021;45.640;11.302;2023-07-13T19:13:15;98616.28;;;22.09;100.00
40315;BME280;26021;45.640;11.302;2023-07-13T19:15:41;98659.09;;;22.13;100.00
40315;BME280;26021;45.640;11.302;2023-07-13T19:18:19;98518.03;;;21.18;100.00
40315;BME280;26021;45.640;11.302;2023-07-13T19:20:46;98671.19;;;22.01;100.00
40315;BME280;26021;45.640;11.302;2023-07-13T19:23:31;98664.28;;;21.93;100.00
40315;BME280;26021;45.640;11.302;2023-07-13T19:26:25;98682.31;;;21.99;100.00